Time;durP1;ratioP1;P1;durP2;ratioP2;P2;SDS_P1;SDS_P2;PMS_P1;PMS_P2;Temp;Humidity;BMP_temperature;BMP_pressure;BME280_temperature;BME280_humidity;BME280_pressure;Samples;Min_cycle;Max_cycle;Signal;HPM_P1;HPM_P2
2023/03/09 00:02:26;;;;;;;;;13.00;12.60;;;;;13.09;56.15;96580.34;6263642;27;96735;-58
2023/03/09 00:05:29;;;;;;;;;15.40;13.40;;;;;13.02;57.09;96579.88;6212156;27;98597;-57
2023/03/09 00:08:34;;;;;;;;;12.00;12.00;;;;;13.02;57.42;96578.00;6313276;27;96391;-58
2023/03/09 00:11:41;;;;;;;;;14.60;12.80;;;;;12.94;57.19;96553.53;6251306;27;97024;-58
2023/03/09 00:14:44;;;;;;;;;11.00;10.20;;;;;12.93;58.40;96571.63;6272664;27;96693;-57
2023/03/09 00:17:47;;;;;;;;;15.00;14.00;;;;;12.90;58.20;96558.69;6286221;27;96461;-58
2023/03/09 00:20:51;;;;;;;;;11.00;10.20;;;;;13.04;58.32;96569.59;6265062;27;96398;-57
2023/03/09 00:23:55;;;;;;;;;14.00;13.00;;;;;13.08;58.48;96561.69;6280757;27;96427;-58
2023/03/09 00:27:00;;;;;;;;;12.25;11.25;;;;;13.01;58.88;96557.44;6252835;27;97070;-57
2023/03/09 00:30:04;;;;;;;;;14.50;12.25;;;;;12.99;59.15;96561.56;6298864;27;96254;-57
2023/03/09 00:33:08;;;;;;;;;15.60;15.60;;;;;13.00;59.72;96555.84;6264717;27;96457;-61
2023/03/09 00:36:14;;;;;;;;;13.00;12.00;;;;;12.98;59.61;96547.22;6267353;27;96267;-60
2023/03/09 00:39:18;;;;;;;;;16.00;14.60;;;;;13.01;59.87;96543.13;6254589;27;96565;-61
2023/03/09 00:42:22;;;;;;;;;15.00;14.00;;;;;13.00;59.58;96552.31;6309170;27;96534;-61
2023/03/09 00:45:25;;;;;;;;;18.00;16.60;;;;;12.96;59.82;96552.13;6302803;27;96838;-61
2023/03/09 00:48:29;;;;;;;;;12.00;12.00;;;;;13.00;59.40;96550.41;6277455;27;96399;-60
2023/03/09 00:51:32;;;;;;;;;13.00;12.00;;;;;13.00;59.45;96545.00;6269737;27;96826;-60
2023/03/09 00:54:37;;;;;;;;;13.20;11.40;;;;;13.09;59.10;96541.66;6281985;27;98389;-59
2023/03/09 00:57:41;;;;;;;;;13.60;13.00;;;;;12.91;58.99;96502.72;6261500;27;96401;-61
2023/03/09 01:00:44;;;;;;;;;14.60;14.60;;;;;13.15;59.18;96548.59;6320367;27;98506;-61
2023/03/09 01:03:48;;;;;;;;;14.40;13.80;;;;;13.08;59.50;96542.75;6324406;27;96286;-61
2023/03/09 01:06:54;;;;;;;;;15.00;14.40;;;;;13.11;59.56;96536.75;6312634;27;97019;-61
2023/03/09 01:09:59;;;;;;;;;11.40;10.40;;;;;13.07;59.99;96541.94;6312994;27;96316;-61
2023/03/09 01:13:02;;;;;;;;;15.50;15.50;;;;;13.12;59.74;96528.38;6267222;27;96594;-61
2023/03/09 01:16:07;;;;;;;;;12.40;12.40;;;;;13.11;59.48;96520.50;6299065;27;96866;-61
2023/03/09 01:19:12;;;;;;;;;12.80;11.00;;;;;13.11;59.91;96518.66;6286169;27;96567;-61
2023/03/09 01:22:16;;;;;;;;;12.00;11.00;;;;;13.12;59.64;96520.25;6276577;27;96670;-61
2023/03/09 01:25:21;;;;;;;;;11.60;11.60;;;;;13.09;59.91;96511.91;6288590;27;96695;-61
2023/03/09 01:28:24;;;;;;;;;12.67;12.00;;;;;13.10;59.75;96505.38;6225252;27;96790;-61
2023/03/09 01:31:28;;;;;;;;;13.40;12.40;;;;;13.10;59.57;96502.69;6302448;27;96980;-61
2023/03/09 01:34:31;;;;;;;;;14.00;14.00;;;;;13.10;59.37;96498.06;6236847;27;96491;-62
2023/03/09 01:37:35;;;;;;;;;15.00;14.00;;;;;13.15;59.72;96502.63;6274537;27;96437;-60
2023/03/09 01:40:40;;;;;;;;;14.00;11.80;;;;;13.16;59.17;96488.00;6303367;27;96930;-61
2023/03/09 01:43:44;;;;;;;;;14.00;13.00;;;;;13.25;59.42;96494.34;6262995;27;96532;-61
2023/03/09 01:46:50;;;;;;;;;14.00;14.00;;;;;13.25;59.25;96500.56;6344894;27;96180;-61
2023/03/09 01:49:54;;;;;;;;;13.00;12.40;;;;;13.29;59.28;96496.16;6264885;27;96657;-60
2023/03/09 01:53:03;;;;;;;;;13.75;13.25;;;;;13.36;58.73;96493.88;6283301;27;96330;-60
2023/03/09 01:56:11;;;;;;;;;13.00;12.75;;;;;13.37;58.86;96500.91;6296137;27;96314;-61
2023/03/09 01:59:15;;;;;;;;;16.00;13.80;;;;;13.38;58.89;96496.28;6221393;27;96648;-59
2023/03/09 02:02:21;;;;;;;;;15.00;14.25;;;;;13.40;59.48;96494.06;6270663;27;98332;-60
2023/03/09 02:05:30;;;;;;;;;11.60;10.60;;;;;13.37;59.40;96494.69;6261611;27;97183;-60
2023/03/09 02:08:34;;;;;;;;;13.00;12.00;;;;;13.27;60.32;96482.13;6270387;27;98330;-60
2023/03/09 02:11:40;;;;;;;;;14.60;12.60;;;;;13.26;59.91;96482.44;6263564;27;96777;-61
2023/03/09 02:14:43;;;;;;;;;12.25;12.25;;;;;13.28;60.10;96491.06;6279521;27;96353;-61
2023/03/09 02:17:47;;;;;;;;;12.00;12.00;;;;;13.29;59.92;96484.56;6314535;27;96318;-61
2023/03/09 02:20:58;;;;;;;;;14.00;13.40;;;;;13.32;59.54;96478.53;6296785;27;96616;-61
2023/03/09 02:24:11;;;;;;;;;14.50;13.50;;;;;13.40;59.18;96475.94;6294872;27;96311;-61
2023/03/09 02:27:19;;;;;;;;;12.00;11.00;;;;;13.42;59.00;96478.34;6263184;27;96399;-60
2023/03/09 02:30:26;;;;;;;;;10.75;10.75;;;;;13.45;58.87;96467.72;6274932;27;96876;-61
2023/03/09 02:33:30;;;;;;;;;12.80;12.20;;;;;13.48;58.88;96474.47;6281677;27;96854;-60
2023/03/09 02:36:35;;;;;;;;;12.00;11.20;;;;;13.48;58.48;96471.75;6271884;27;96635;-58
2023/03/09 02:39:45;;;;;;;;;10.00;10.00;;;;;13.47;58.81;96466.63;6282789;27;96283;-58
2023/03/09 02:42:52;;;;;;;;;12.00;11.00;;;;;13.49;58.70;96472.56;6275875;27;96423;-58
2023/03/09 02:45:58;;;;;;;;;11.25;10.25;;;;;13.49;58.81;96473.34;6249491;27;96980;-58
2023/03/09 02:49:02;;;;;;;;;12.00;11.75;;;;;13.49;59.06;96473.34;6248121;27;96776;-57
2023/03/09 02:52:06;;;;;;;;;9.00;8.00;;;;;13.51;58.88;96475.75;6299551;27;96324;-58
2023/03/09 02:55:10;;;;;;;;;8.00;8.00;;;;;13.55;58.34;96471.34;6239952;27;96322;-57
2023/03/09 02:58:15;;;;;;;;;9.00;7.00;;;;;13.49;58.67;96473.34;6250780;27;96841;-58
2023/03/09 03:01:19;;;;;;;;;7.00;7.00;;;;;13.51;58.51;96483.88;6236239;27;96332;-58
2023/03/09 03:04:22;;;;;;;;;8.50;7.50;;;;;13.53;58.88;96474.38;6310765;27;96449;-58
2023/03/09 03:07:27;;;;;;;;;9.00;7.40;;;;;13.51;59.36;96483.88;6309664;27;96751;-58
2023/03/09 03:10:31;;;;;;;;;6.50;6.50;;;;;13.50;59.23;96488.47;6263211;27;96839;-57
2023/03/09 03:13:36;;;;;;;;;8.00;7.50;;;;;13.48;59.68;96492.59;6227814;27;96796;-57
2023/03/09 03:16:40;;;;;;;;;8.00;7.00;;;;;13.47;59.85;96491.00;6279465;27;96818;-58
2023/03/09 03:19:44;;;;;;;;;6.67;6.67;;;;;13.45;60.11;96494.78;6197180;27;96679;-57
2023/03/09 03:22:49;;;;;;;;;5.60;5.20;;;;;13.43;60.44;96488.91;6274485;27;96485;-57
2023/03/09 03:25:57;;;;;;;;;7.00;7.00;;;;;13.49;60.41;96489.59;6307954;27;96265;-58
2023/03/09 03:29:02;;;;;;;;;7.50;7.00;;;;;13.48;60.64;96484.47;6267481;27;97282;-57
2023/03/09 03:32:07;;;;;;;;;8.00;8.00;;;;;13.52;60.48;96477.38;6283513;27;96407;-57
2023/03/09 03:35:11;;;;;;;;;6.00;6.00;;;;;13.56;60.40;96472.97;6318585;27;97920;-57
2023/03/09 03:38:19;;;;;;;;;5.00;5.00;;;;;13.55;60.84;96474.06;6262322;27;96279;-57
2023/03/09 03:41:22;;;;;;;;;5.00;5.00;;;;;13.61;60.51;96470.97;6273287;27;96416;-58
2023/03/09 03:44:30;;;;;;;;;6.75;6.75;;;;;13.45;60.84;96458.81;6249035;27;98464;-58
2023/03/09 03:47:34;;;;;;;;;6.25;6.00;;;;;13.61;61.08;96478.28;6282642;27;96897;-58
2023/03/09 03:50:37;;;;;;;;;5.25;5.25;;;;;13.60;61.40;96471.25;6264126;27;96586;-57
2023/03/09 03:53:42;;;;;;;;;6.00;6.00;;;;;13.57;61.36;96475.38;6245484;27;96882;-57
2023/03/09 03:56:46;;;;;;;;;5.50;5.00;;;;;13.55;61.36;96469.44;6258120;27;97612;-57
2023/03/09 03:59:52;;;;;;;;;6.00;6.00;;;;;13.42;61.98;96452.09;6280104;27;97534;-58
2023/03/09 04:02:56;;;;;;;;;5.00;5.00;;;;;13.50;61.60;96457.91;6303507;27;96340;-58
2023/03/09 04:06:08;;;;;;;;;5.00;5.00;;;;;13.51;61.83;96449.50;6249196;27;96451;-57
2023/03/09 04:09:12;;;;;;;;;5.00;5.00;;;;;13.57;61.76;96456.44;6242139;27;96506;-58
2023/03/09 04:12:15;;;;;;;;;5.80;5.20;;;;;13.54;61.82;96446.19;6235292;27;96914;-57
2023/03/09 04:15:21;;;;;;;;;7.40;7.00;;;;;13.52;61.73;96443.00;6249899;27;96338;-58
2023/03/09 04:18:25;;;;;;;;;6.00;6.00;;;;;13.54;61.54;96439.97;6269685;27;96939;-57
2023/03/09 04:21:30;;;;;;;;;7.00;7.00;;;;;13.50;61.90;96437.06;6276004;27;96592;-58
2023/03/09 04:24:33;;;;;;;;;5.60;5.00;;;;;13.45;61.82;96437.97;6265017;27;96304;-58
2023/03/09 04:27:37;;;;;;;;;4.75;4.75;;;;;13.44;61.20;96436.34;6252224;27;96750;-58
2023/03/09 04:30:48;;;;;;;;;6.00;5.25;;;;;13.44;61.34;96433.66;6240579;27;96422;-58
2023/03/09 04:33:52;;;;;;;;;6.00;6.00;;;;;13.42;61.18;96438.56;6242610;27;96703;-58
2023/03/09 04:36:56;;;;;;;;;4.60;4.60;;;;;13.44;61.34;96427.44;6251195;27;96815;-57
2023/03/09 04:40:00;;;;;;;;;6.50;6.00;;;;;13.48;60.97;96431.16;6260675;27;96707;-58
2023/03/09 04:43:06;;;;;;;;;6.50;5.75;;;;;13.50;60.98;96428.94;6257078;27;96731;-58
2023/03/09 04:46:11;;;;;;;;;8.67;7.67;;;;;13.49;60.37;96421.16;6286469;27;96827;-58
2023/03/09 04:49:18;;;;;;;;;6.67;6.67;;;;;13.50;60.26;96423.53;6231522;27;96560;-58
2023/03/09 04:52:22;;;;;;;;;7.00;7.00;;;;;13.40;60.14;96400.16;6288395;27;96627;-57
2023/03/09 04:55:27;;;;;;;;;9.00;8.00;;;;;13.48;60.12;96416.81;6243966;27;96236;-58
2023/03/09 04:58:33;;;;;;;;;6.00;6.00;;;;;13.54;60.01;96408.28;6306599;27;96837;-58
2023/03/09 05:01:38;;;;;;;;;7.00;6.60;;;;;13.49;60.08;96410.31;6261329;27;96320;-58
2023/03/09 05:04:47;;;;;;;;;8.00;7.00;;;;;13.55;59.80;96401.78;6234557;27;98512;-58
2023/03/09 05:07:50;;;;;;;;;5.00;5.00;;;;;13.56;59.91;96402.59;6303400;27;96867;-58
2023/03/09 05:10:54;;;;;;;;;5.00;5.00;;;;;13.57;59.91;96399.59;6264842;27;96640;-58
2023/03/09 05:14:00;;;;;;;;;5.20;5.20;;;;;13.58;59.98;96398.50;6272221;27;96963;-58
2023/03/09 05:17:07;;;;;;;;;4.00;4.00;;;;;13.60;60.08;96404.38;6273164;27;96349;-58
2023/03/09 05:20:12;;;;;;;;;4.00;3.40;;;;;13.58;60.24;96405.81;6274242;27;96639;-58
2023/03/09 05:23:22;;;;;;;;;3.50;3.50;;;;;13.58;60.43;96411.22;6289112;27;96429;-58
2023/03/09 05:26:25;;;;;;;;;4.00;3.00;;;;;13.54;60.50;96402.06;6256987;27;98678;-58
2023/03/09 05:29:31;;;;;;;;;5.00;5.00;;;;;13.50;60.28;96382.94;6270943;27;96918;-58
2023/03/09 05:32:36;;;;;;;;;6.00;6.00;;;;;13.66;60.17;96402.38;6279993;27;96558;-58
2023/03/09 05:35:39;;;;;;;;;4.00;4.00;;;;;13.69;59.75;96388.22;6206248;27;96916;-57
2023/03/09 05:38:44;;;;;;;;;4.00;4.00;;;;;13.72;59.77;96398.47;6268376;27;96758;-58
2023/03/09 05:41:50;;;;;;;;;6.00;5.00;;;;;13.71;60.10;96392.25;6268831;27;96973;-58
2023/03/09 05:45:04;;;;;;;;;8.00;6.50;;;;;13.72;59.77;96393.06;6262868;27;96430;-58
2023/03/09 05:48:09;;;;;;;;;6.60;6.60;;;;;13.79;59.63;96396.16;6188010;27;96953;-58
2023/03/09 05:51:13;;;;;;;;;8.00;8.00;;;;;13.84;59.15;96401.47;6242975;27;98561;-58
2023/03/09 05:54:17;;;;;;;;;5.00;5.00;;;;;13.89;58.77;96401.34;6256460;27;96824;-57
2023/03/09 05:57:21;;;;;;;;;5.00;3.75;;;;;13.91;58.72;96398.34;6274370;27;97061;-58
2023/03/09 06:00:27;;;;;;;;;4.20;4.20;;;;;13.93;58.21;96391.50;6266944;27;96929;-57
2023/03/09 06:03:37;;;;;;;;;3.40;3.40;;;;;13.93;58.01;96388.81;6268052;27;96999;-58
2023/03/09 06:06:41;;;;;;;;;6.00;5.00;;;;;13.98;57.85;96396.00;6268262;27;97013;-59
2023/03/09 06:09:45;;;;;;;;;4.40;4.40;;;;;13.99;57.72;96389.50;6268057;27;96316;-59
2023/03/09 06:12:54;;;;;;;;;4.00;3.00;;;;;14.02;57.68;96395.13;6266095;27;96486;-58
2023/03/09 06:16:03;;;;;;;;;4.00;4.00;;;;;13.99;57.58;96398.44;6274144;27;96355;-58
2023/03/09 06:19:08;;;;;;;;;4.00;4.00;;;;;13.95;57.60;96392.03;6200222;27;96465;-58
2023/03/09 06:22:12;;;;;;;;;4.00;4.00;;;;;13.98;57.92;96396.81;6306799;27;96276;-58
2023/03/09 06:25:16;;;;;;;;;2.60;2.60;;;;;14.00;57.52;96389.22;6262623;27;96481;-59
2023/03/09 06:28:22;;;;;;;;;4.00;3.50;;;;;14.05;57.25;96389.09;6261072;27;96524;-58
2023/03/09 06:31:25;;;;;;;;;3.60;3.20;;;;;14.19;57.12;96394.47;6204158;27;97048;-58
2023/03/09 06:34:32;;;;;;;;;4.00;4.00;;;;;14.18;56.86;96392.88;6261132;27;96224;-58
2023/03/09 06:37:39;;;;;;;;;7.00;5.00;;;;;14.14;56.94;96403.53;6272079;27;96868;-58
2023/03/09 06:40:45;;;;;;;;;4.00;3.00;;;;;14.18;56.31;96401.81;6263461;27;96360;-58
2023/03/09 06:43:49;;;;;;;;;5.80;5.00;;;;;14.31;56.14;96395.56;6263465;27;96522;-58
2023/03/09 06:46:52;;;;;;;;;5.00;4.00;;;;;14.32;56.37;96399.84;6197176;27;96372;-58
2023/03/09 06:50:00;;;;;;;;;4.00;3.60;;;;;14.41;55.94;96399.19;6208258;27;96855;-58
2023/03/09 06:53:07;;;;;;;;;6.00;4.40;;;;;14.40;55.72;96394.84;6243324;27;97326;-58
2023/03/09 06:56:11;;;;;;;;;5.00;5.00;;;;;14.49;55.30;96396.53;6276752;27;97644;-58
2023/03/09 06:59:15;;;;;;;;;5.00;5.00;;;;;14.52;55.05;96389.69;6275017;27;97236;-59
2023/03/09 07:02:19;;;;;;;;;4.00;4.00;;;;;14.58;54.83;96394.69;6275084;27;96287;-58
2023/03/09 07:05:24;;;;;;;;;5.00;5.00;;;;;14.60;54.36;96386.25;6274786;27;96615;-57
2023/03/09 07:08:27;;;;;;;;;4.00;4.00;;;;;14.66;54.44;96385.78;6273481;27;96625;-58
2023/03/09 07:11:31;;;;;;;;;6.00;5.00;;;;;14.79;54.20;96381.44;6206116;27;96260;-57
2023/03/09 07:14:35;;;;;;;;;4.25;4.00;;;;;14.86;53.78;96392.63;6208574;27;96349;-57
2023/03/09 07:17:38;;;;;;;;;5.40;4.40;;;;;14.94;53.56;96382.97;6195700;27;96401;-57
2023/03/09 07:20:43;;;;;;;;;5.00;5.00;;;;;15.01;53.53;96386.81;6209847;27;96507;-57
2023/03/09 07:23:47;;;;;;;;;6.00;5.00;;;;;14.94;53.13;96385.69;6273977;27;96429;-57
2023/03/09 07:26:50;;;;;;;;;5.00;5.00;;;;;14.93;53.56;96387.59;6269601;27;96229;-57
2023/03/09 07:29:54;;;;;;;;;4.00;4.00;;;;;14.99;53.36;96378.22;6250225;27;97854;-57
2023/03/09 07:32:57;;;;;;;;;5.00;4.60;;;;;15.08;52.97;96375.53;6208142;27;96401;-57
2023/03/09 07:36:04;;;;;;;;;4.40;4.00;;;;;15.17;52.86;96374.47;6266678;27;96805;-57
2023/03/09 07:39:07;;;;;;;;;4.00;4.00;;;;;15.12;52.48;96366.47;6200034;27;96229;-57
2023/03/09 07:42:11;;;;;;;;;6.00;6.00;;;;;15.22;52.31;96375.44;6191521;27;96909;-57
2023/03/09 07:45:28;;;;;;;;;4.00;3.50;;;;;15.25;52.23;96372.91;6267787;27;96645;-57
2023/03/09 07:48:31;;;;;;;;;5.00;5.00;;;;;15.17;52.14;96368.25;6203187;27;96566;-57
2023/03/09 07:51:37;;;;;;;;;3.00;3.00;;;;;15.32;52.17;96369.75;6194186;27;97158;-57
2023/03/09 07:54:40;;;;;;;;;4.67;3.67;;;;;15.42;52.05;96353.19;6188080;27;96448;-58
2023/03/09 07:57:44;;;;;;;;;4.60;4.00;;;;;15.50;51.96;96350.50;6205876;27;96533;-57
2023/03/09 08:00:47;;;;;;;;;5.00;5.00;;;;;15.59;51.63;96337.75;6254132;27;96922;-58
2023/03/09 08:03:51;;;;;;;;;5.00;4.00;;;;;15.68;51.16;96345.16;6196985;27;97622;-58
2023/03/09 08:06:55;;;;;;;;;4.60;3.00;;;;;15.65;51.33;96343.84;6274065;27;96658;-58
2023/03/09 08:09:59;;;;;;;;;5.00;5.00;;;;;15.72;51.50;96351.53;6204076;27;97533;-57
2023/03/09 08:13:02;;;;;;;;;3.00;3.00;;;;;15.63;52.08;96350.72;6204989;27;97042;-57
2023/03/09 08:16:08;;;;;;;;;5.00;4.00;;;;;15.66;52.58;96352.81;6198166;27;96400;-57
2023/03/09 08:19:12;;;;;;;;;4.40;4.00;;;;;15.64;52.83;96353.09;6206395;27;96379;-57
2023/03/09 08:22:17;;;;;;;;;6.00;4.00;;;;;15.59;53.96;96366.84;6204956;27;97275;-57
2023/03/09 08:25:20;;;;;;;;;5.00;4.00;;;;;15.59;54.14;96370.34;6205518;27;96634;-57
2023/03/09 08:28:24;;;;;;;;;5.00;5.00;;;;;15.54;54.95;96377.88;6207759;27;96969;-57
2023/03/09 08:31:27;;;;;;;;;4.80;4.80;;;;;15.55;55.48;96396.53;6207215;27;96910;-57
2023/03/09 08:34:31;;;;;;;;;4.00;3.40;;;;;15.51;56.50;96390.13;6207390;27;96283;-57
2023/03/09 08:37:35;;;;;;;;;5.00;5.00;;;;;15.46;56.82;96387.53;6207277;28;96368;-57
2023/03/09 08:40:39;;;;;;;;;3.00;3.00;;;;;15.45;56.73;96393.25;6207763;27;96319;-57
2023/03/09 08:43:42;;;;;;;;;4.00;3.00;;;;;15.41;57.54;96384.94;6211351;27;96269;-57
2023/03/09 08:46:46;;;;;;;;;4.00;3.60;;;;;15.36;57.85;96389.72;6214444;27;96238;-61
2023/03/09 08:49:49;;;;;;;;;4.33;4.00;;;;;15.25;57.63;96391.91;6284999;27;98341;-61
2023/03/09 08:52:53;;;;;;;;;4.40;4.00;;;;;15.25;57.98;96385.69;6288206;27;96260;-61
2023/03/09 08:55:57;;;;;;;;;5.00;5.00;;;;;15.29;58.24;96389.38;6288197;27;96814;-61
2023/03/09 08:59:00;;;;;;;;;3.00;3.00;;;;;15.23;58.14;96394.13;6220955;28;96525;-60
2023/03/09 09:02:04;;;;;;;;;5.00;4.00;;;;;15.18;58.45;96403.22;6287366;27;98405;-61
2023/03/09 09:05:09;;;;;;;;;3.60;3.00;;;;;15.20;58.49;96391.25;6268325;27;98352;-61
2023/03/09 09:08:14;;;;;;;;;3.00;2.50;;;;;15.13;58.86;96388.97;6296784;27;98409;-60
2023/03/09 09:11:18;;;;;;;;;4.00;4.00;;;;;15.16;58.88;96388.34;6268761;27;97021;-60
2023/03/09 09:14:21;;;;;;;;;4.00;3.50;;;;;15.13;59.08;96387.06;6286773;27;98390;-61
2023/03/09 09:17:24;;;;;;;;;4.00;3.75;;;;;15.18;59.24;96384.22;6282893;27;96200;-61
2023/03/09 09:20:28;;;;;;;;;5.00;4.80;;;;;15.23;59.23;96382.47;6220279;28;96747;-61
2023/03/09 09:23:32;;;;;;;;;4.40;4.40;;;;;15.25;59.64;96383.75;6220270;27;96598;-61
2023/03/09 09:26:36;;;;;;;;;5.00;4.25;;;;;15.35;60.07;96388.91;6219125;28;96366;-60
2023/03/09 09:29:39;;;;;;;;;6.00;4.40;;;;;15.27;59.78;96384.25;6304222;27;96512;-61
2023/03/09 09:32:44;;;;;;;;;5.00;5.00;;;;;15.27;60.17;96370.69;6288056;27;96221;-61
2023/03/09 09:35:55;;;;;;;;;3.00;3.00;;;;;15.44;59.95;96381.59;6221412;27;96314;-61
2023/03/09 09:39:01;;;;;;;;;6.00;4.00;;;;;15.46;59.72;96390.25;6271749;27;98079;-61
2023/03/09 09:42:11;;;;;;;;;4.00;4.00;;;;;15.54;59.90;96391.44;6287083;27;96647;-61
2023/03/09 09:45:31;;;;;;;;;5.00;4.00;;;;;15.57;59.18;96397.03;6283049;27;98333;-60
2023/03/09 09:48:36;;;;;;;;;5.00;5.00;;;;;15.48;59.46;96389.94;6204571;27;97414;-61
2023/03/09 09:51:56;;;;;;;;;3.00;3.00;;;;;15.54;59.37;96394.94;6286546;27;98033;-61
2023/03/09 09:55:13;;;;;;;;;4.25;3.00;;;;;15.60;59.79;96401.03;6267333;27;96770;-61
2023/03/09 09:58:30;;;;;;;;;3.20;3.20;;;;;15.66;59.54;96397.06;6286811;27;96244;-61
2023/03/09 10:01:43;;;;;;;;;6.00;5.50;;;;;15.70;60.19;96398.03;6218901;27;96368;-60
2023/03/09 10:04:54;;;;;;;;;6.00;5.75;;;;;15.84;60.39;96408.78;6219223;27;96327;-61
2023/03/09 10:08:11;;;;;;;;;6.60;6.00;;;;;15.83;60.21;96407.97;6266349;27;98491;-60
2023/03/09 10:11:22;;;;;;;;;6.00;5.50;;;;;15.80;60.71;96411.31;6274456;27;98199;-60
2023/03/09 10:14:31;;;;;;;;;6.00;5.25;;;;;15.76;61.08;96412.28;6275398;27;98742;-61
2023/03/09 10:17:43;;;;;;;;;3.00;3.00;;;;;15.75;60.86;96425.03;6213728;27;96317;-62
2023/03/09 10:20:51;;;;;;;;;5.20;5.20;;;;;15.66;60.75;96426.13;6260114;27;98444;-60
2023/03/09 10:23:57;;;;;;;;;7.00;7.00;;;;;15.63;61.06;96427.56;6282494;27;97395;-61
2023/03/09 10:27:08;;;;;;;;;5.00;5.00;;;;;15.57;61.54;96435.06;6286179;27;96399;-61
2023/03/09 10:30:22;;;;;;;;;8.33;8.00;;;;;15.42;62.23;96427.28;6218673;27;96251;-60
2023/03/09 10:33:38;;;;;;;;;9.00;8.75;;;;;15.48;61.89;96433.38;6206629;27;96260;-60
2023/03/09 10:36:56;;;;;;;;;6.60;6.60;;;;;15.46;62.15;96439.13;6218723;27;96587;-59
2023/03/09 10:40:05;;;;;;;;;7.00;7.00;;;;;15.37;62.42;96438.28;6284374;27;96917;-60
2023/03/09 10:43:18;;;;;;;;;7.40;7.00;;;;;15.20;63.38;96453.69;6217862;27;96504;-60
2023/03/09 10:46:24;;;;;;;;;7.40;7.00;;;;;15.06;63.92;96462.66;6276721;27;100128;-60
2023/03/09 10:49:29;;;;;;;;;5.00;5.00;;;;;14.96;64.52;96468.34;6277690;27;98501;-61
2023/03/09 10:52:32;;;;;;;;;5.25;5.25;;;;;14.77;64.86;96473.13;6209977;27;96226;-58
2023/03/09 10:55:42;;;;;;;;;4.00;4.00;;;;;14.41;66.46;96477.78;6203968;27;97063;-58
2023/03/09 10:59:09;;;;;;;;;4.50;3.00;;;;;14.50;66.86;96487.59;6267695;27;98909;-60
2023/03/09 11:02:29;;;;;;;;;5.00;5.00;;;;;14.38;67.27;96484.59;6208088;27;96326;-60
2023/03/09 11:05:35;;;;;;;;;4.40;3.60;;;;;14.48;67.59;96481.66;6254679;27;96864;-61
2023/03/09 11:08:39;;;;;;;;;6.00;5.00;;;;;14.28;67.88;96471.22;6211694;28;96401;-60
2023/03/09 11:12:27;;;;;;;;;6.00;5.25;;;;;14.36;68.26;96486.81;6291528;27;96341;-62
2023/03/09 11:15:34;;;;;;;;;8.75;7.75;;;;;14.39;67.85;96498.94;6280907;27;96402;-61
2023/03/09 11:18:38;;;;;;;;;7.00;6.25;;;;;14.48;67.70;96499.84;6220790;27;96243;-59
2023/03/09 11:21:50;;;;;;;;;7.00;6.20;;;;;14.51;67.64;96510.91;6289430;27;96291;-60
2023/03/09 11:24:53;;;;;;;;;8.40;7.40;;;;;14.50;67.93;96513.91;6289174;27;97058;-60
2023/03/09 11:28:01;;;;;;;;;9.00;8.00;;;;;14.50;68.16;96528.25;6226058;27;97036;-60
2023/03/09 11:31:13;;;;;;;;;8.50;8.00;;;;;14.50;68.27;96541.81;6228672;28;96803;-60
2023/03/09 11:34:24;;;;;;;;;9.00;8.00;;;;;14.51;68.35;96540.72;6227749;27;96312;-60
2023/03/09 11:37:41;;;;;;;;;8.20;8.00;;;;;14.48;68.67;96537.78;6303946;27;96829;-61
2023/03/09 11:40:47;;;;;;;;;11.60;10.00;;;;;14.53;68.12;96560.16;6291362;27;96809;-60
2023/03/09 11:43:54;;;;;;;;;8.00;7.00;;;;;14.55;68.00;96560.69;6222262;27;96341;-60
2023/03/09 11:47:04;;;;;;;;;12.00;10.50;;;;;14.56;68.30;96559.56;6222001;28;96341;-60
2023/03/09 11:50:14;;;;;;;;;9.00;9.00;;;;;14.40;68.80;96569.13;6221271;27;96466;-61
2023/03/09 11:53:24;;;;;;;;;10.00;9.00;;;;;14.35;68.60;96584.66;6211655;27;96395;-60
2023/03/09 11:56:30;;;;;;;;;9.00;9.00;;;;;14.10;68.59;96580.53;6290802;27;96370;-60
2023/03/09 11:59:38;;;;;;;;;9.25;8.00;;;;;14.11;68.93;96585.66;6293014;27;96673;-60
2023/03/09 12:02:56;;;;;;;;;8.60;8.00;;;;;14.09;68.45;96604.09;6279192;27;97793;-60
2023/03/09 12:06:07;;;;;;;;;7.00;6.60;;;;;13.89;67.53;96604.47;6296284;27;96768;-59
2023/03/09 12:09:23;;;;;;;;;6.00;6.00;;;;;13.81;67.40;96630.34;6227552;27;96292;-60
2023/03/09 12:12:36;;;;;;;;;5.00;5.00;;;;;13.70;67.64;96628.09;6222502;28;96378;-60
2023/03/09 12:15:48;;;;;;;;;3.60;3.60;;;;;13.58;67.82;96631.28;6232999;27;96419;-60
2023/03/09 12:19:01;;;;;;;;;3.00;3.00;;;;;13.70;68.04;96639.72;6233797;27;96148;-60
2023/03/09 12:22:08;;;;;;;;;4.60;4.00;;;;;13.78;68.15;96644.47;6292797;27;98611;-60
2023/03/09 12:25:19;;;;;;;;;3.75;3.00;;;;;13.85;67.58;96644.91;6229586;27;96330;-60
2023/03/09 12:28:23;;;;;;;;;3.60;3.60;;;;;13.80;67.74;96649.59;6285234;27;98413;-61
2023/03/09 12:31:30;;;;;;;;;4.80;4.80;;;;;13.84;67.44;96667.66;6313763;27;96494;-60
2023/03/09 12:34:42;;;;;;;;;3.00;2.25;;;;;13.86;67.03;96659.25;6233372;28;96312;-59
2023/03/09 12:37:56;;;;;;;;;5.00;4.40;;;;;14.11;66.04;96669.66;6233706;27;96487;-59
2023/03/09 12:40:59;;;;;;;;;5.00;4.33;;;;;14.12;65.67;96681.28;6275592;27;98474;-60
2023/03/09 12:44:03;;;;;;;;;3.00;2.20;;;;;14.16;65.33;96680.41;6234449;27;96352;-60
2023/03/09 12:47:22;;;;;;;;;3.00;3.00;;;;;14.19;64.54;96695.25;6296616;27;98337;-60
2023/03/09 12:50:40;;;;;;;;;3.75;3.75;;;;;14.16;64.20;96696.66;6228513;27;96268;-60
2023/03/09 12:53:58;;;;;;;;;4.00;4.00;;;;;14.09;64.79;96714.38;6226894;27;96508;-58
2023/03/09 12:57:12;;;;;;;;;4.25;4.00;;;;;13.85;64.62;96712.59;6218636;27;96385;-59
2023/03/09 13:00:27;;;;;;;;;2.50;2.25;;;;;13.81;65.01;96727.03;6294039;27;96267;-60
2023/03/09 13:03:34;;;;;;;;;3.20;3.20;;;;;13.89;64.10;96718.22;6304489;27;96651;-60
2023/03/09 13:06:40;;;;;;;;;5.00;4.00;;;;;13.70;64.65;96709.31;6314538;27;96771;-60
2023/03/09 13:09:44;;;;;;;;;4.50;4.00;;;;;14.10;63.93;96740.38;6254456;27;96214;-60
2023/03/09 13:12:47;;;;;;;;;4.00;4.00;;;;;14.18;62.85;96728.84;6236606;27;96262;-60
2023/03/09 13:15:50;;;;;;;;;1.00;1.00;;;;;14.27;61.81;96752.25;6236797;27;96383;-60
2023/03/09 13:19:52;;;;;;;;;4.00;3.60;;;;;14.48;61.95;96758.16;6236529;27;96803;-60
2023/03/09 13:22:58;;;;;;;;;4.00;3.00;;;;;14.58;60.53;96760.72;6236069;27;96810;-59
2023/03/09 13:26:14;;;;;;;;;3.00;3.00;;;;;14.67;60.68;96764.34;6301915;27;96717;-59
2023/03/09 13:29:23;;;;;;;;;2.00;2.00;;;;;14.63;60.04;96779.59;6236172;27;96689;-60
2023/03/09 13:32:30;;;;;;;;;3.00;3.00;;;;;14.66;59.41;96794.47;6234392;28;96281;-59
2023/03/09 13:35:39;;;;;;;;;4.00;4.00;;;;;14.66;59.18;96783.63;6302828;27;98684;-59
2023/03/09 13:38:49;;;;;;;;;5.00;4.00;;;;;14.85;59.42;96795.22;6236212;28;96328;-60
2023/03/09 13:41:53;;;;;;;;;5.00;4.00;;;;;14.70;58.64;96804.44;6236608;27;96357;-60
2023/03/09 13:44:58;;;;;;;;;5.20;5.00;;;;;14.73;58.45;96822.00;6233119;27;96578;-58
2023/03/09 13:48:05;;;;;;;;;5.00;5.00;;;;;14.76;58.43;96817.91;6232011;27;96362;-58
2023/03/09 13:51:25;;;;;;;;;4.00;4.00;;;;;14.76;58.13;96828.75;6302881;27;96684;-59
2023/03/09 13:54:31;;;;;;;;;3.00;3.00;;;;;14.83;57.70;96832.66;6297652;27;98374;-60
2023/03/09 13:57:37;;;;;;;;;5.00;5.00;;;;;14.86;57.12;96833.97;6227839;27;96712;-60
2023/03/09 14:00:52;;;;;;;;;5.00;4.80;;;;;14.98;56.92;96845.16;6300414;27;96046;-61
2023/03/09 14:03:57;;;;;;;;;6.00;6.00;;;;;14.91;56.86;96855.59;6237457;27;96968;-59
2023/03/09 14:07:00;;;;;;;;;4.00;4.00;;;;;15.17;56.39;96856.75;6303136;27;96194;-60
2023/03/09 14:10:24;;;;;;;;;4.00;3.80;;;;;15.21;55.68;96865.88;6228250;27;96531;-59
2023/03/09 14:13:27;;;;;;;;;6.00;5.80;;;;;15.12;55.41;96863.06;6302838;27;96381;-59
2023/03/09 14:16:32;;;;;;;;;6.00;5.50;;;;;15.10;56.04;96867.19;6234250;27;96245;-60
2023/03/09 14:19:36;;;;;;;;;6.00;6.00;;;;;15.10;55.53;96872.63;6233863;27;96294;-59
2023/03/09 14:22:39;;;;;;;;;7.00;7.00;;;;;15.20;55.00;96877.84;6302246;27;97218;-59
2023/03/09 14:25:44;;;;;;;;;6.40;5.80;;;;;15.05;54.63;96880.84;6234936;27;96249;-59
2023/03/09 14:29:00;;;;;;;;;7.00;7.00;;;;;14.99;54.95;96893.72;6301573;27;96991;-59
2023/03/09 14:32:34;;;;;;;;;5.60;5.60;;;;;15.05;55.14;96878.16;6226754;27;96356;-60
2023/03/09 14:35:39;;;;;;;;;7.80;7.80;;;;;15.10;54.94;96895.13;6143782;28;97568;-59